Time;durP1;ratioP1;P1;durP2;ratioP2;P2;SDS_P1;SDS_P2;PMS_P1;PMS_P2;Temp;Humidity;BMP_temperature;BMP_pressure;BME280_temperature;BME280_humidity;BME280_pressure;Samples;Min_cycle;Max_cycle;Signal;HPM_P1;HPM_P2
2021/04/17 00:02:01;;;;;;;;;;;6.10;99.90;;;;;;5115422;28;19903;-78
2021/04/17 00:04:27;;;;;;;;;;;6.10;99.90;;;;;;5096201;28;19910;-77
2021/04/17 00:06:53;;;;;;;;;;;6.00;99.90;;;;;;5115368;28;19957;-77
2021/04/17 00:09:23;;;;;;;;;;;6.10;99.90;;;;;;5097098;28;20431;-77
2021/04/17 00:11:49;;;;;;;;;;;6.10;99.90;;;;;;5097085;28;19911;-77
2021/04/17 00:14:18;;;;;;;;;;;6.10;99.90;;;;;;5096355;28;20350;-77
2021/04/17 00:16:43;;;;;;;;;;;6.10;99.90;;;;;;5096844;28;19907;-77
2021/04/17 00:19:09;;;;;;;;;;;6.10;99.90;;;;;;5115293;28;20384;-77
2021/04/17 00:21:35;;;;;;;;;;;6.10;99.90;;;;;;5098163;28;19903;-78
2021/04/17 00:24:00;;;;;;;;;;;6.10;99.90;;;;;;5097034;28;19999;-77
2021/04/17 00:26:26;;;;;;;;;;;6.00;99.90;;;;;;5099043;28;20010;-77
2021/04/17 00:28:52;;;;;;;;;;;6.00;99.90;;;;;;5097306;28;19911;-76
2021/04/17 00:31:18;;;;;;;;;;;6.00;99.90;;;;;;5114231;28;19910;-76
2021/04/17 00:33:43;;;;;;;;;;;6.00;99.90;;;;;;5114569;28;20290;-78
2021/04/17 00:36:09;;;;;;;;;;;6.00;99.90;;;;;;5114068;28;19903;-76
2021/04/17 00:38:35;;;;;;;;;;;6.00;99.90;;;;;;5096178;28;19908;-77
2021/04/17 00:41:00;;;;;;;;;;;6.00;99.90;;;;;;5113623;28;19904;-76
2021/04/17 00:43:26;;;;;;;;;;;6.00;99.90;;;;;;5095403;28;19903;-76
2021/04/17 00:45:52;;;;;;;;;;;5.90;99.90;;;;;;5112956;28;19939;-76
2021/04/17 00:48:17;;;;;;;;;;;5.80;99.90;;;;;;5095703;28;19947;-77
2021/04/17 00:50:43;;;;;;;;;;;5.70;99.90;;;;;;5113412;28;19914;-76
2021/04/17 00:53:08;;;;;;;;;;;5.60;99.90;;;;;;5095392;28;19950;-77
2021/04/17 00:55:34;;;;;;;;;;;5.60;99.90;;;;;;5094928;28;19904;-78
2021/04/17 00:58:03;;;;;;;;;;;5.50;99.90;;;;;;5094903;28;19973;-79
2021/04/17 01:00:29;;;;;;;;;;;5.50;99.90;;;;;;5095242;28;19969;-78
2021/04/17 01:02:59;;;;;;;;;;;5.30;99.90;;;;;;5095201;28;19907;-78
2021/04/17 01:05:27;;;;;;;;;;;5.20;99.90;;;;;;5094700;28;20350;-78
2021/04/17 01:07:54;;;;;;;;;;;5.10;99.90;;;;;;5095167;28;20255;-78
2021/04/17 01:10:23;;;;;;;;;;;5.00;99.90;;;;;;5095300;28;20389;-78
2021/04/17 01:12:51;;;;;;;;;;;5.00;99.90;;;;;;5113322;28;19924;-77
2021/04/17 01:15:17;;;;;;;;;;;5.00;99.90;;;;;;5112711;28;19949;-77
2021/04/17 01:17:48;;;;;;;;;;;4.90;99.90;;;;;;5113192;28;19914;-78
2021/04/17 01:20:16;;;;;;;;;;;4.90;99.90;;;;;;5094751;28;20281;-78
2021/04/17 01:22:43;;;;;;;;;;;4.90;99.90;;;;;;5094768;28;19957;-78
2021/04/17 01:25:13;;;;;;;;;;;4.90;99.90;;;;;;5112752;28;19965;-77
2021/04/17 01:27:39;;;;;;;;;;;4.90;99.90;;;;;;5113073;28;19912;-78
2021/04/17 01:30:07;;;;;;;;;;;5.00;99.90;;;;;;5112861;28;19904;-77
2021/04/17 01:32:32;;;;;;;;;;;5.00;99.90;;;;;;5094480;28;19907;-77
2021/04/17 01:34:58;;;;;;;;;;;4.90;99.90;;;;;;5094273;28;20370;-78
2021/04/17 01:37:43;;;;;;;;;;;4.90;99.90;;;;;;5094678;28;19943;-77
2021/04/17 01:40:10;;;;;;;;;;;4.80;99.90;;;;;;5094445;28;20358;-76
2021/04/17 01:42:36;;;;;;;;;;;4.70;99.90;;;;;;5094829;28;20367;-78
2021/04/17 01:45:01;;;;;;;;;;;4.60;99.90;;;;;;5094132;28;19958;-76
2021/04/17 01:47:27;;;;;;;;;;;4.50;99.90;;;;;;5112675;28;20378;-77
2021/04/17 01:49:53;;;;;;;;;;;4.40;99.90;;;;;;5112998;28;19915;-78
2021/04/17 01:52:22;;;;;;;;;;;4.30;99.90;;;;;;5095131;28;19904;-77
2021/04/17 01:54:52;;;;;;;;;;;4.20;99.90;;;;;;5094057;28;19951;-77
2021/04/17 01:57:20;;;;;;;;;;;4.10;99.90;;;;;;5112848;28;19904;-78
2021/04/17 01:59:47;;;;;;;;;;;4.10;99.90;;;;;;5113077;28;19938;-78
2021/04/17 02:02:13;;;;;;;;;;;4.00;99.90;;;;;;5112911;28;19904;-78
2021/04/17 02:04:39;;;;;;;;;;;4.00;99.90;;;;;;5094037;28;19977;-75
2021/04/17 02:07:04;;;;;;;;;;;4.00;99.90;;;;;;5094389;28;20246;-76
2021/04/17 02:09:30;;;;;;;;;;;4.10;99.90;;;;;;5112370;28;19910;-76
2021/04/17 02:11:55;;;;;;;;;;;4.10;99.90;;;;;;5097444;28;19950;-76
2021/04/17 02:14:21;;;;;;;;;;;4.30;99.90;;;;;;5097782;28;19904;-77
2021/04/17 02:17:12;;;;;;;;;;;4.30;99.90;;;;;;5116314;28;19904;-77
2021/04/17 02:19:50;;;;;;;;;;;4.40;99.90;;;;;;5059883;28;19912;-75
2021/04/17 02:22:15;;;;;;;;;;;4.40;99.90;;;;;;5116500;28;19957;-75
2021/04/17 02:24:41;;;;;;;;;;;4.60;99.90;;;;;;5116050;28;20324;-77
2021/04/17 02:27:07;;;;;;;;;;;4.60;99.90;;;;;;5098374;28;20359;-76
2021/04/17 02:29:33;;;;;;;;;;;4.70;99.90;;;;;;5116360;28;19956;-76
2021/04/17 02:31:58;;;;;;;;;;;4.80;99.90;;;;;;5116264;28;19933;-76
2021/04/17 02:34:24;;;;;;;;;;;4.80;99.90;;;;;;5097407;28;19915;-76
2021/04/17 02:36:49;;;;;;;;;;;4.90;99.90;;;;;;5097897;28;20385;-75
2021/04/17 02:39:15;;;;;;;;;;;4.90;99.90;;;;;;5116343;28;19999;-77
2021/04/17 02:41:40;;;;;;;;;;;4.90;99.90;;;;;;5097962;28;19903;-77
2021/04/17 02:44:06;;;;;;;;;;;5.00;99.90;;;;;;5097412;28;19904;-76
2021/04/17 02:46:31;;;;;;;;;;;5.00;99.90;;;;;;5097428;28;19903;-76
2021/04/17 02:48:57;;;;;;;;;;;5.00;99.90;;;;;;5115972;28;19903;-76
2021/04/17 02:51:22;;;;;;;;;;;5.00;99.90;;;;;;5098091;28;19929;-77
2021/04/17 02:53:49;;;;;;;;;;;4.90;99.90;;;;;;5100969;28;19971;-77
2021/04/17 02:56:14;;;;;;;;;;;4.90;99.90;;;;;;5110501;28;19939;-78
2021/04/17 02:58:40;;;;;;;;;;;4.80;99.90;;;;;;5112370;28;19907;-78
2021/04/17 03:01:06;;;;;;;;;;;4.80;99.90;;;;;;5131947;28;19999;-77
2021/04/17 03:03:31;;;;;;;;;;;4.90;99.90;;;;;;5116711;28;19903;-76
2021/04/17 03:05:57;;;;;;;;;;;4.90;99.90;;;;;;5097073;28;19913;-75
2021/04/17 03:08:22;;;;;;;;;;;4.80;99.90;;;;;;5115630;28;19947;-77
2021/04/17 03:10:48;;;;;;;;;;;4.80;99.90;;;;;;5097197;28;19904;-77
2021/04/17 03:13:13;;;;;;;;;;;4.70;99.90;;;;;;5097392;28;19904;-77
2021/04/17 03:15:39;;;;;;;;;;;4.60;99.90;;;;;;5096802;28;19904;-79
2021/04/17 03:18:04;;;;;;;;;;;4.50;99.90;;;;;;5115539;28;19907;-78
2021/04/17 03:20:30;;;;;;;;;;;4.50;99.90;;;;;;5115459;28;19903;-75
2021/04/17 03:22:55;;;;;;;;;;;4.50;99.90;;;;;;5097147;28;19904;-78
2021/04/17 03:25:21;;;;;;;;;;;4.40;99.90;;;;;;5096314;28;19904;-76
2021/04/17 03:27:47;;;;;;;;;;;4.40;99.90;;;;;;5097001;28;19911;-77
2021/04/17 03:30:14;;;;;;;;;;;4.40;99.90;;;;;;5096918;28;19908;-76
2021/04/17 03:32:40;;;;;;;;;;;4.40;99.90;;;;;;5114931;28;20345;-76
2021/04/17 03:35:07;;;;;;;;;;;4.40;99.90;;;;;;5096156;28;20012;-76
2021/04/17 03:37:32;;;;;;;;;;;4.30;99.90;;;;;;5096871;28;20367;-78
2021/04/17 03:39:58;;;;;;;;;;;4.30;99.90;;;;;;5096559;28;19910;-76
2021/04/17 03:42:23;;;;;;;;;;;4.30;99.90;;;;;;5096531;28;20370;-76
2021/04/17 03:44:49;;;;;;;;;;;4.20;99.90;;;;;;5096344;28;19904;-77
2021/04/17 03:47:14;;;;;;;;;;;4.20;99.90;;;;;;5096329;28;19904;-76
2021/04/17 03:49:40;;;;;;;;;;;4.10;99.90;;;;;;5096255;28;20006;-77
2021/04/17 03:52:05;;;;;;;;;;;4.00;99.90;;;;;;5096950;28;20066;-78
2021/04/17 03:54:31;;;;;;;;;;;3.90;99.90;;;;;;5114590;28;20074;-76
2021/04/17 03:56:56;;;;;;;;;;;3.80;99.90;;;;;;5115070;28;19927;-75
2021/04/17 03:59:22;;;;;;;;;;;3.80;99.90;;;;;;5114316;28;19915;-77
2021/04/17 04:01:47;;;;;;;;;;;3.80;99.90;;;;;;5096298;28;20468;-76
2021/04/17 04:04:13;;;;;;;;;;;3.80;99.90;;;;;;5113760;28;19964;-75
2021/04/17 04:06:39;;;;;;;;;;;3.70;99.90;;;;;;5096168;28;19942;-76
2021/04/17 04:09:04;;;;;;;;;;;3.70;99.90;;;;;;5095756;28;19973;-77
2021/04/17 04:11:30;;;;;;;;;;;3.60;99.90;;;;;;5095767;28;19903;-77
2021/04/17 04:13:55;;;;;;;;;;;3.70;99.90;;;;;;5095410;28;20247;-76
2021/04/17 04:16:21;;;;;;;;;;;3.70;99.90;;;;;;5113995;28;20286;-76
2021/04/17 04:18:46;;;;;;;;;;;3.80;99.90;;;;;;5113644;28;19907;-75
2021/04/17 04:21:12;;;;;;;;;;;3.90;99.90;;;;;;5095674;28;19949;-77
2021/04/17 04:23:37;;;;;;;;;;;3.90;99.90;;;;;;5113800;28;19949;-76
2021/04/17 04:26:03;;;;;;;;;;;4.00;99.90;;;;;;5113073;28;19914;-77
2021/04/17 04:28:28;;;;;;;;;;;4.10;99.90;;;;;;5095639;28;19903;-77
2021/04/17 04:30:54;;;;;;;;;;;4.20;99.90;;;;;;5095423;28;19903;-76
2021/04/17 04:33:19;;;;;;;;;;;4.20;99.90;;;;;;5095099;28;19918;-77
2021/04/17 04:35:44;;;;;;;;;;;4.20;99.90;;;;;;5112959;28;20439;-76
2021/04/17 04:38:10;;;;;;;;;;;4.20;99.90;;;;;;5095519;28;19915;-77
2021/04/17 04:40:35;;;;;;;;;;;4.30;99.90;;;;;;5095374;28;19908;-75
2021/04/17 04:43:01;;;;;;;;;;;4.40;99.90;;;;;;5095546;28;20358;-78
2021/04/17 04:45:26;;;;;;;;;;;4.50;99.90;;;;;;5093826;28;20294;-76
2021/04/17 04:47:52;;;;;;;;;;;4.50;99.90;;;;;;5094308;28;20000;-76
2021/04/17 04:50:17;;;;;;;;;;;4.60;99.90;;;;;;5111193;28;19998;-76
2021/04/17 04:52:43;;;;;;;;;;;4.70;99.90;;;;;;5094022;28;19907;-78
2021/04/17 04:55:08;;;;;;;;;;;4.60;99.90;;;;;;5094080;28;20021;-78
2021/04/17 04:57:34;;;;;;;;;;;4.70;99.90;;;;;;5112560;28;19910;-77
2021/04/17 05:00:00;;;;;;;;;;;4.80;99.90;;;;;;5093928;28;19912;-79
2021/04/17 05:02:25;;;;;;;;;;;4.80;99.90;;;;;;5094227;28;19904;-77
2021/04/17 05:04:51;;;;;;;;;;;4.80;99.90;;;;;;5093702;28;19904;-76
2021/04/17 05:07:16;;;;;;;;;;;4.90;99.90;;;;;;5093778;28;19949;-76
2021/04/17 05:09:42;;;;;;;;;;;4.90;99.90;;;;;;5093670;28;20358;-77
2021/04/17 05:12:08;;;;;;;;;;;5.00;99.90;;;;;;5093684;28;19912;-78
2021/04/17 05:14:33;;;;;;;;;;;4.90;99.90;;;;;;5093264;28;19942;-77
2021/04/17 05:16:59;;;;;;;;;;;5.00;99.90;;;;;;5111873;28;19904;-77
2021/04/17 05:19:25;;;;;;;;;;;5.20;99.90;;;;;;5093613;28;19907;-77
2021/04/17 05:21:51;;;;;;;;;;;5.20;99.90;;;;;;5111608;28;19957;-76
2021/04/17 05:24:16;;;;;;;;;;;5.20;99.90;;;;;;5093132;28;19903;-75
2021/04/17 05:26:42;;;;;;;;;;;5.20;99.90;;;;;;5111845;28;19907;-77
2021/04/17 05:29:07;;;;;;;;;;;5.50;99.90;;;;;;5093753;28;20274;-78
2021/04/17 05:31:36;;;;;;;;;;;5.70;99.90;;;;;;5093497;28;20027;-77
2021/04/17 05:34:02;;;;;;;;;;;6.00;99.90;;;;;;5092805;28;20018;-76
2021/04/17 05:36:27;;;;;;;;;;;6.30;99.90;;;;;;5111681;28;20003;-78
2021/04/17 05:38:53;;;;;;;;;;;6.50;99.90;;;;;;5111665;28;19958;-78
2021/04/17 05:41:19;;;;;;;;;;;6.70;99.90;;;;;;5093605;28;19912;-77
2021/04/17 05:43:45;;;;;;;;;;;7.00;99.90;;;;;;5093327;28;19910;-76
2021/04/17 05:46:10;;;;;;;;;;;6.80;99.90;;;;;;5094622;28;19904;-77
2021/04/17 05:48:36;;;;;;;;;;;6.80;99.90;;;;;;5115989;28;19903;-76
2021/04/17 05:51:01;;;;;;;;;;;6.90;99.90;;;;;;5097537;28;20248;-77
2021/04/17 05:53:27;;;;;;;;;;;6.80;99.90;;;;;;5097445;28;19904;-78
2021/04/17 05:55:53;;;;;;;;;;;6.60;99.90;;;;;;5097418;28;20370;-79
2021/04/17 05:58:18;;;;;;;;;;;6.60;99.90;;;;;;5101290;28;19915;-77
2021/04/17 06:00:44;;;;;;;;;;;6.40;99.90;;;;;;5107909;28;19903;-77
2021/04/17 06:03:09;;;;;;;;;;;6.40;99.90;;;;;;5109697;28;19904;-79
2021/04/17 06:05:35;;;;;;;;;;;6.50;99.90;;;;;;5109495;28;19904;-76
2021/04/17 06:08:03;;;;;;;;;;;6.50;99.90;;;;;;5098018;28;19910;-79
2021/04/17 06:10:28;;;;;;;;;;;6.70;99.90;;;;;;5115333;28;19933;-77
2021/04/17 06:12:54;;;;;;;;;;;6.80;99.90;;;;;;5097350;28;19907;-76
2021/04/17 06:15:19;;;;;;;;;;;6.90;99.90;;;;;;5096848;28;19903;-76
2021/04/17 06:17:44;;;;;;;;;;;7.00;99.90;;;;;;5097701;28;19908;-78
2021/04/17 06:20:10;;;;;;;;;;;7.70;99.90;;;;;;5097780;28;20343;-77
2021/04/17 06:22:36;;;;;;;;;;;7.90;99.90;;;;;;5097465;28;19904;-76
2021/04/17 06:25:02;;;;;;;;;;;8.00;99.90;;;;;;5115434;28;19908;-78
2021/04/17 06:27:28;;;;;;;;;;;7.80;99.90;;;;;;5097598;28;19911;-77
2021/04/17 06:29:53;;;;;;;;;;;8.10;99.90;;;;;;5097370;28;19908;-76
2021/04/17 06:32:19;;;;;;;;;;;8.20;99.90;;;;;;5097517;28;19957;-76
2021/04/17 06:34:44;;;;;;;;;;;8.00;99.90;;;;;;5096956;28;19964;-78
2021/04/17 06:37:10;;;;;;;;;;;8.30;99.90;;;;;;5097326;28;19908;-78
2021/04/17 06:39:35;;;;;;;;;;;8.40;99.90;;;;;;5116888;28;19907;-79
2021/04/17 06:42:02;;;;;;;;;;;8.30;99.90;;;;;;5098467;28;19925;-77
2021/04/17 06:44:28;;;;;;;;;;;8.70;99.90;;;;;;5115460;28;20377;-77
2021/04/17 06:46:53;;;;;;;5.50;3.60;;;9.20;99.90;;;;;;5115628;28;19939;-77
2021/04/17 06:49:19;;;;;;;7.45;3.92;;;9.60;99.90;;;;;;5115310;28;20054;-78
2021/04/17 06:51:47;;;;;;;5.00;3.60;;;9.30;99.90;;;;;;5115531;28;20031;-77
2021/04/17 06:54:18;;;;;;;7.45;4.63;;;9.50;99.90;;;;;;5115033;28;20050;-78
2021/04/17 06:56:44;;;;;;;6.53;3.58;;;9.80;99.90;;;;;;5096392;28;20034;-79
2021/04/17 06:59:10;;;;;;;5.80;3.00;;;9.90;99.90;;;;;;5115303;28;20032;-78
2021/04/17 07:01:39;;;;;;;3.63;3.00;;;10.40;99.90;;;;;;5096843;28;20489;-78
2021/04/17 07:04:05;;;;;;;6.25;3.60;;;11.40;99.90;;;;;;5115135;28;20077;-79
2021/04/17 07:06:31;;;;;;;4.65;3.53;;;11.40;99.90;;;;;;5096959;28;20045;-79
2021/04/17 07:08:56;;;;;;;;;;;11.70;99.90;;;;;;5097241;28;20515;-80
2021/04/17 07:11:22;;;;;;;;;;;11.60;99.90;;;;;;5090331;28;19908;-80
2021/04/17 07:14:13;;;;;;;5.53;3.20;;;13.80;99.90;;;;;;5107253;28;24054;-80
2021/04/17 07:16:56;;;;;;;4.78;3.35;;;13.80;99.80;;;;;;5096661;28;20526;-77
2021/04/17 07:19:23;;;;;;;5.18;3.08;;;12.50;99.90;;;;;;5112634;28;20050;-80
2021/04/17 07:21:50;;;;;;;4.38;3.17;;;13.20;99.90;;;;;;5113897;28;20111;-80
2021/04/17 07:24:26;;;;;;;4.97;3.55;;;13.50;99.90;;;;;;5112504;28;20032;-78
2021/04/17 07:26:52;;;;;;;5.90;3.45;;;13.00;99.90;;;;;;5114897;28;20020;-78
2021/04/17 07:29:18;;;;;;;5.30;3.33;;;13.50;99.90;;;;;;5113572;28;20081;-77
2021/04/17 07:32:02;;;;;;;3.13;2.60;;;14.00;98.90;;;;;;5114632;28;20034;-76
2021/04/17 07:34:28;;;;;;;4.38;3.08;;;13.20;99.90;;;;;;5113746;28;20114;-78
2021/04/17 07:36:59;;;;;;;3.10;2.58;;;13.10;99.90;;;;;;5114188;28;20161;-78
2021/04/17 07:39:40;;;;;;;4.25;3.08;;;13.50;98.90;;;;;;5112642;28;20443;-78
2021/04/17 07:42:12;;;;;;;3.80;3.25;;;13.70;98.70;;;;;;5113039;28;20038;-78
2021/04/17 07:44:44;;;;;;;4.68;3.20;;;13.30;99.40;;;;;;5112441;28;20020;-77
2021/04/17 07:47:10;;;;;;;5.00;2.80;;;12.60;99.80;;;;;;5114580;28;20371;-78
2021/04/17 07:49:37;;;;;;;5.35;3.35;;;13.60;99.90;;;;;;5116447;28;20023;-79
2021/04/17 07:52:10;;;;;;;4.50;2.80;;;14.90;96.80;;;;;;5116814;28;19908;-77
2021/04/17 07:54:38;;;;;;;4.85;2.95;;;16.00;93.60;;;;;;5116805;28;20023;-79
2021/04/17 07:57:12;;;;;;;3.53;2.88;;;17.00;88.40;;;;;;5116045;28;20057;-80
2021/04/17 07:59:41;;;;;;;4.70;3.60;;;15.50;90.20;;;;;;5088766;28;20339;-78
2021/04/17 08:02:07;;;;;;;3.15;2.85;;;16.30;88.00;;;;;;5088356;28;20027;-80
2021/04/17 08:04:33;;;;;;;5.15;3.15;;;16.40;87.50;;;;;;5085685;28;20023;-80
2021/04/17 08:07:00;;;;;;;5.22;3.63;;;15.90;85.00;;;;;;5105991;28;20407;-79
2021/04/17 08:09:27;;;;;;;3.88;3.15;;;16.80;82.50;;;;;;5087492;28;20115;-78
2021/04/17 08:11:56;;;;;;;4.68;3.38;;;17.00;76.60;;;;;;5086375;28;20019;-80
2021/04/17 08:14:24;;;;;;;5.57;2.80;;;16.80;78.40;;;;;;5106683;28;20459;-79
2021/04/17 08:16:50;;;;;;;4.03;2.90;;;15.90;78.80;;;;;;5085155;28;20047;-78
2021/04/17 08:19:16;;;;;;;3.03;2.70;;;14.70;83.80;;;;;;5080231;28;20023;-80
2021/04/17 08:21:42;;;;;;;4.88;3.25;;;13.50;89.40;;;;;;5075379;28;20028;-78
2021/04/17 08:24:09;;;;;;;4.63;3.35;;;12.40;92.10;;;;;;5091845;28;20043;-77
2021/04/17 08:26:35;;;;;;;;;;;11.90;95.10;;;;;;5075109;28;20070;-76
2021/04/17 08:29:01;;;;;;;5.70;3.63;;;11.10;97.60;;;;;;5074647;28;19908;-77
2021/04/17 08:31:38;;;;;;;4.82;2.78;;;11.00;99.90;;;;;;5074666;28;20026;-79
2021/04/17 08:34:12;;;;;;;5.03;2.95;;;10.80;99.90;;;;;;5092120;28;20479;-78
2021/04/17 08:36:41;;;;;;;5.40;3.42;;;11.10;99.90;;;;;;5092916;28;20128;-77
2021/04/17 08:39:28;;;;;;;4.97;3.08;;;11.40;99.90;;;;;;5092210;28;20573;-78
2021/04/17 08:41:54;;;;;;;5.50;3.05;;;11.60;99.90;;;;;;5074544;28;20020;-76
2021/04/17 08:44:33;;;;;;;6.22;3.38;;;12.00;99.90;;;;;;5092523;28;20024;-77
2021/04/17 08:47:04;;;;;;;4.03;2.42;;;12.30;99.80;;;;;;5075988;28;20073;-77
2021/04/17 08:49:32;;;;;;;;;;;15.40;94.50;;;;;;5078123;28;20042;-79
2021/04/17 08:52:22;;;;;;;;;;;19.00;82.30;;;;;;5097669;28;19908;-79
2021/04/17 08:54:53;;;;;;;3.55;2.45;;;21.60;63.40;;;;;;5098935;28;19915;-79
2021/04/17 08:57:19;;;;;;;2.53;2.33;;;23.60;52.20;;;;;;5097293;28;20024;-80
2021/04/17 08:59:54;;;;;;;2.75;1.73;;;23.20;51.30;;;;;;5094698;28;20085;-78
2021/04/17 09:02:20;;;;;;;2.92;2.47;;;23.00;48.50;;;;;;5094578;28;20025;-81
2021/04/17 09:05:00;;;;;;;2.40;2.20;;;22.60;53.30;;;;;;5094840;28;20024;-81
2021/04/17 09:07:28;;;;;;;3.28;2.15;;;21.20;48.70;;;;;;5079252;28;20115;-77
2021/04/17 09:09:54;;;;;;;;;;;21.20;47.40;;;;;;5080855;28;20499;-80
2021/04/17 09:12:20;;;;;;;;;;;21.30;48.00;;;;;;5081011;28;19911;-79
2021/04/17 09:14:51;;;;;;;;;;;22.60;46.80;;;;;;5099199;28;19907;-80
2021/04/17 09:17:32;;;;;;;2.78;2.33;;;23.70;44.10;;;;;;5081786;28;19908;-79
2021/04/17 09:19:59;;;;;;;;;;;23.70;43.80;;;;;;5083026;28;20020;-81
2021/04/17 09:22:24;;;;;;;;;;;23.80;44.20;;;;;;5082005;28;19915;-81
2021/04/17 09:24:54;;;;;;;;;;;23.80;43.20;;;;;;5082145;28;19994;-81
2021/04/17 09:27:30;;;;;;;;;;;25.00;42.40;;;;;;5100277;28;19930;-79
2021/04/17 09:30:18;;;;;;;2.50;2.03;;;25.70;41.10;;;;;;5081130;28;19913;-79
2021/04/17 09:32:47;;;;;;;;;;;25.30;39.40;;;;;;5081274;28;20031;-80
2021/04/17 09:35:30;;;;;;;;;;;23.20;41.80;;;;;;5100992;28;19908;-79
2021/04/17 09:38:00;;;;;;;;;;;23.70;42.10;;;;;;5082238;28;19941;-79
2021/04/17 09:40:33;;;;;;;;;;;25.80;41.80;;;;;;5081625;28;19914;-81
2021/04/17 09:42:59;;;;;;;;;;;23.70;41.50;;;;;;5102852;28;19904;-79
2021/04/17 09:45:29;;;;;;;;;;;20.60;46.00;;;;;;5081550;28;19922;-80
2021/04/17 09:47:55;;;;;;;;;;;18.40;47.10;;;;;;5081270;28;19974;-79
2021/04/17 09:50:21;;;;;;;;;;;17.90;50.10;;;;;;5081014;28;19904;-80
2021/04/17 09:52:47;;;;;;;;;;;17.20;51.80;;;;;;5077080;28;19946;-81
2021/04/17 09:55:13;;;;;;;;;;;16.70;50.60;;;;;;5075379;28;19904;-81
2021/04/17 09:57:44;;;;;;;;;;;16.90;49.70;;;;;;5099993;28;20427;-81
2021/04/17 10:00:10;;;;;;;;;;;17.60;49.30;;;;;;5098133;28;19908;-81
2021/04/17 10:02:45;;;;;;;;;;;19.70;46.70;;;;;;5100298;28;19910;-79
2021/04/17 10:05:12;;;;;;;;;;;22.40;43.20;;;;;;5099385;28;19911;-81
2021/04/17 10:07:44;;;;;;;;;;;22.30;41.70;;;;;;5098326;28;19910;-80
2021/04/17 10:10:10;;;;;;;;;;;21.50;43.00;;;;;;5097801;28;19903;-81
2021/04/17 10:12:55;;;;;;;1.75;1.35;;;22.40;42.30;;;;;;5096738;28;19904;-81
2021/04/17 10:15:31;;;;;;;1.95;1.38;;;23.40;42.00;;;;;;5118856;28;20023;-81
2021/04/17 10:18:00;;;;;;;2.28;1.52;;;24.00;41.50;;;;;;5106789;28;20024;-79
2021/04/17 10:20:26;;;;;;;1.95;1.45;;;24.50;40.00;;;;;;5121222;28;20490;-80
2021/04/17 10:22:53;;;;;;;;;;;23.70;41.90;;;;;;5096968;28;20028;-81
2021/04/17 10:25:37;;;;;;;;;;;20.90;44.00;;;;;;5101057;28;19903;-80
2021/04/17 10:28:23;;;;;;;;;;;21.40;44.90;;;;;;5100319;28;19904;-82
2021/04/17 10:30:50;;;;;;;;;;;22.60;44.30;;;;;;5096103;28;19953;-81
2021/04/17 10:33:20;;;;;;;;;;;23.00;42.00;;;;;;5117643;28;19939;-81
2021/04/17 10:35:46;;;;;;;;;;;21.70;42.10;;;;;;5119028;28;19908;-79
2021/04/17 10:38:32;;;;;;;;;;;19.00;44.40;;;;;;5101709;28;19907;-81
2021/04/17 10:40:59;;;;;;;;;;;19.20;44.70;;;;;;5107557;28;19904;-81
2021/04/17 10:43:25;;;;;;;;;;;18.90;44.10;;;;;;5107147;28;19904;-81
2021/04/17 10:45:55;;;;;;;;;;;18.30;48.00;;;;;;5106616;28;20052;-80
2021/04/17 10:48:24;;;;;;;1.75;1.10;;;18.00;46.40;;;;;;5103644;28;19915;-81
2021/04/17 10:51:02;;;;;;;1.67;0.93;;;18.90;45.10;;;;;;5100611;28;20027;-81
2021/04/17 10:53:37;;;;;;;1.85;1.13;;;19.80;46.40;;;;;;5105511;28;20019;-80
2021/04/17 10:56:16;;;;;;;2.13;1.52;;;19.30;45.10;;;;;;5103410;28;20042;-80
2021/04/17 10:58:43;;;;;;;;;;;20.20;43.80;;;;;;5123167;28;20495;-81
2021/04/17 11:01:14;;;;;;;1.60;1.33;;;21.90;43.60;;;;;;5109869;28;20371;-79
2021/04/17 11:03:45;;;;;;;1.23;1.10;;;22.90;39.30;;;;;;5110548;28;20020;-81
2021/04/17 11:06:19;;;;;;;1.35;0.95;;;22.60;40.30;;;;;;5110239;28;20016;-80
2021/04/17 11:08:47;;;;;;;2.10;1.00;;;22.60;41.60;;;;;;5129635;28;20046;-80
2021/04/17 11:11:21;;;;;;;1.92;1.33;;;22.30;39.60;;;;;;5129094;28;20461;-78
2021/04/17 11:13:55;;;;;;;1.63;1.30;;;20.30;43.70;;;;;;5111468;28;20030;-81
2021/04/17 11:16:35;;;;;;;1.10;1.00;;;20.50;43.40;;;;;;5111680;28;20111;-81
2021/04/17 11:19:00;;;;;;;1.02;0.80;;;20.90;40.90;;;;;;5109069;28;20023;-80
2021/04/17 11:21:26;;;;;;;1.73;1.15;;;20.90;42.30;;;;;;5104856;28;20105;-82
2021/04/17 11:23:55;;;;;;;1.73;1.33;;;21.70;43.80;;;;;;5104988;28;20079;-81
2021/04/17 11:26:23;;;;;;;0.93;0.85;;;20.80;40.80;;;;;;5106950;28;20024;-82
2021/04/17 11:28:52;;;;;;;1.37;1.10;;;22.30;41.00;;;;;;5125418;28;20020;-80
2021/04/17 11:31:23;;;;;;;3.53;1.27;;;23.20;41.60;;;;;;5122547;28;20375;-81
2021/04/17 11:33:49;;;;;;;2.65;1.25;;;24.00;40.30;;;;;;5101926;28;20043;-80
2021/04/17 11:36:15;;;;;;;;;;;23.20;39.20;;;;;;5099834;28;20398;-77
2021/04/17 11:38:41;;;;;;;;;;;21.20;42.20;;;;;;5097170;28;19907;-79
2021/04/17 11:41:06;;;;;;;2.20;0.90;;;20.90;42.10;;;;;;5115199;28;19922;-80
2021/04/17 11:43:32;;;;;;;1.33;0.88;;;21.00;42.30;;;;;;5097197;28;20031;-78
2021/04/17 11:45:58;;;;;;;1.20;0.80;;;21.10;44.30;;;;;;5097988;28;20030;-78
2021/04/17 11:48:23;;;;;;;;;;;20.90;42.80;;;;;;5116263;28;20059;-78
2021/04/17 11:50:50;;;;;;;;;;;19.10;40.90;;;;;;5115371;28;20260;-78
2021/04/17 11:53:18;;;;;;;;;;;18.60;44.10;;;;;;5098352;28;20410;-80
2021/04/17 11:55:44;;;;;;;;;;;18.40;44.20;;;;;;5099856;28;19915;-79
2021/04/17 11:58:10;;;;;;;;;;;17.60;42.50;;;;;;5117821;28;19908;-79
2021/04/17 12:00:35;;;;;;;;;;;17.20;45.00;;;;;;5115965;28;20317;-78
2021/04/17 12:03:01;;;;;;;;;;;17.60;42.80;;;;;;5115985;28;20005;-78
2021/04/17 12:05:27;;;;;;;;;;;17.50;42.60;;;;;;5099349;28;20335;-78
2021/04/17 12:07:53;;;;;;;;;;;17.70;44.80;;;;;;5098180;28;19939;-78
2021/04/17 12:10:18;;;;;;;;;;;16.80;44.70;;;;;;5099203;28;20290;-80
2021/04/17 12:12:45;;;;;;;;;;;16.60;45.70;;;;;;5116308;28;20002;-78
2021/04/17 12:15:11;;;;;;;;;;;16.30;48.40;;;;;;5096571;28;19908;-78
2021/04/17 12:17:36;;;;;;;;;;;16.00;48.60;;;;;;5115131;28;19904;-78
2021/04/17 12:20:02;;;;;;;;;;;16.50;46.50;;;;;;5096935;28;20274;-77
2021/04/17 12:22:28;;;;;;;;;;;16.10;48.70;;;;;;5113977;28;19904;-81
2021/04/17 12:24:53;;;;;;;;;;;15.60;47.40;;;;;;5114132;28;19911;-78
2021/04/17 12:27:19;;;;;;;;;;;15.60;47.80;;;;;;5095650;28;19980;-75
2021/04/17 12:29:45;;;;;;;;;;;15.90;48.80;;;;;;5113838;28;19910;-77
2021/04/17 12:32:10;;;;;;;;;;;16.10;47.90;;;;;;5114216;28;19986;-77
2021/04/17 12:34:36;;;;;;;;;;;16.50;49.20;;;;;;5095500;28;19912;-76
2021/04/17 12:37:02;;;;;;;;;;;16.00;47.50;;;;;;5095271;28;19911;-77
2021/04/17 12:39:27;;;;;;;;;;;15.70;50.00;;;;;;5095936;28;19908;-77
2021/04/17 12:41:53;;;;;;;;;;;15.30;50.90;;;;;;5095633;28;19924;-78
2021/04/17 12:44:19;;;;;;;;;;;15.40;50.20;;;;;;5113284;28;20045;-76
2021/04/17 12:46:44;;;;;;;;;;;15.40;48.90;;;;;;5114025;28;19904;-76
2021/04/17 12:49:10;;;;;;;;;;;15.40;50.10;;;;;;5095495;28;19912;-76
2021/04/17 12:51:35;;;;;;;;;;;15.90;50.90;;;;;;5114694;28;19903;-77
2021/04/17 12:54:01;;;;;;;;;;;16.30;50.50;;;;;;5112987;28;20347;-75
2021/04/17 12:56:26;;;;;;;;;;;15.80;48.30;;;;;;5095181;28;19919;-78
2021/04/17 12:58:53;;;;;;;;;;;15.80;48.20;;;;;;5113585;28;20415;-76
2021/04/17 13:01:18;;;;;;;;;;;15.70;49.20;;;;;;5095224;28;19903;-76
2021/04/17 13:03:44;;;;;;;;;;;15.90;49.40;;;;;;5096496;28;19977;-75
2021/04/17 13:06:10;;;;;;;;;;;16.20;45.90;;;;;;5094774;28;19904;-77
2021/04/17 13:08:35;;;;;;;;;;;16.00;44.50;;;;;;5095424;28;20355;-76
2021/04/17 13:11:00;;;;;;;;;;;15.40;46.70;;;;;;5094964;28;19904;-77
2021/04/17 13:13:26;;;;;;;;;;;15.30;47.50;;;;;;5094697;28;19903;-77
2021/04/17 13:15:51;;;;;;;;;;;15.30;47.60;;;;;;5094505;28;19904;-76
2021/04/17 13:18:17;;;;;;;;;;;14.90;49.80;;;;;;5094949;28;19911;-76
2021/04/17 13:20:43;;;;;;;;;;;14.90;50.20;;;;;;5112903;28;19903;-77
2021/04/17 13:23:08;;;;;;;;;;;15.20;50.90;;;;;;5113106;28;19908;-76
2021/04/17 13:25:35;;;;;;;;;;;15.40;50.70;;;;;;5094073;28;19907;-78
2021/04/17 13:28:00;;;;;;;;;;;15.30;49.10;;;;;;5113023;28;19907;-76
2021/04/17 13:30:27;;;;;;;;;;;15.30;51.30;;;;;;5112931;28;19931;-77
2021/04/17 13:32:52;;;;;;;;;;;14.90;50.00;;;;;;5094422;28;20339;-78
2021/04/17 13:35:18;;;;;;;;;;;15.10;52.00;;;;;;5094326;28;19951;-77
2021/04/17 13:37:43;;;;;;;;;;;15.30;49.20;;;;;;5112949;28;20355;-76
2021/04/17 13:40:09;;;;;;;;;;;15.30;47.90;;;;;;5095046;28;19904;-77
2021/04/17 13:42:34;;;;;;;;;;;15.20;48.40;;;;;;5094805;28;20033;-78
2021/04/17 13:45:00;;;;;;;;;;;14.90;47.60;;;;;;5094540;28;19907;-77
2021/04/17 13:47:26;;;;;;;;;;;14.70;47.70;;;;;;5094912;28;19951;-77
2021/04/17 13:49:51;;;;;;;;;;;14.70;48.50;;;;;;5094636;28;19942;-76
2021/04/17 13:52:17;;;;;;;;;;;15.00;46.80;;;;;;5094745;28;19970;-76
2021/04/17 13:54:42;;;;;;;;;;;15.00;48.70;;;;;;5094471;28;19910;-77
2021/04/17 13:57:07;;;;;;;;;;;15.10;49.20;;;;;;5094750;28;19968;-77
2021/04/17 13:59:34;;;;;;;;;;;15.30;50.30;;;;;;5094848;28;20112;-78
2021/04/17 14:02:01;;;;;;;;;;;15.40;50.10;;;;;;5112738;28;20266;-77
2021/04/17 14:04:26;;;;;;;;;;;15.70;50.40;;;;;;5094734;28;20162;-76